Terminal Aerodrome Forecast
Issued by NWS Wilmington, OH

Current Version | Previous Version | Text Only | Print | Product List | Glossary Off
Versions: 1 2 3 4 5 6 7 8 9 10 11 12 13 14

000
FTUS41 KILN 180233 AAB
TAFILN
TAF AMD
KILN 180233Z 1803/1824 VRB03KT P6SM FEW050
     FM180400 VRB03KT P6SM SKC
     FM180800 VRB02KT 4SM BR SKC
     FM181200 VRB03KT P6SM SKC
     FM181500 21004KT P6SM SCT050=

USA.gov is the U.S. government's official web portal to all federal, state and local government web resources and services.